Time;durP1;ratioP1;P1;durP2;ratioP2;P2;SDS_P1;SDS_P2;PMS_P1;PMS_P2;Temp;Humidity;BMP_temperature;BMP_pressure;BME280_temperature;BME280_humidity;BME280_pressure;Samples;Min_cycle;Max_cycle;Signal;HPM_P1;HPM_P2
2023/08/11 00:00:21;;;;;;;7.32;2.00;;;16.00;99.90;;;17.88;100.00;101301.94;5023856;28;20034;-79
2023/08/11 00:02:52;;;;;;;4.57;2.20;;;16.00;99.90;;;17.80;100.00;101296.81;5034772;28;20038;-78
2023/08/11 00:05:19;;;;;;;8.02;2.33;;;16.00;99.90;;;17.64;100.00;101266.19;5021838;28;20026;-80
2023/08/11 00:07:50;;;;;;;6.85;2.25;;;16.00;99.90;;;17.70;100.00;101283.69;5023814;28;20139;-80
2023/08/11 00:10:20;;;;;;;5.05;2.20;;;16.00;99.90;;;17.80;100.00;101297.66;5028474;28;20497;-78
2023/08/11 00:12:47;;;;;;;7.38;2.30;;;16.00;99.90;;;17.87;100.00;101299.41;5025633;28;20397;-80
2023/08/11 00:15:13;;;;;;;12.10;2.60;;;16.00;99.90;;;17.89;100.00;101299.97;5032588;28;20085;-79
2023/08/11 00:17:40;;;;;;;10.68;2.83;;;16.10;99.90;;;17.84;100.00;101286.97;5027621;28;20048;-78
2023/08/11 00:20:08;;;;;;;4.55;2.17;;;16.10;99.90;;;17.87;100.00;101314.06;5027820;28;20116;-80
2023/08/11 00:22:35;;;;;;;4.65;2.35;;;16.10;99.90;;;17.86;100.00;101297.72;5027371;28;20044;-80
2023/08/11 00:25:00;;;;;;;7.28;2.25;;;16.10;99.90;;;18.02;100.00;101315.41;5025270;28;20397;-80
2023/08/11 00:27:27;;;;;;;7.88;2.63;;;16.10;99.90;;;18.04;100.00;101316.84;5018078;28;20038;-79
2023/08/11 00:29:54;;;;;;;5.55;2.33;;;16.10;99.90;;;18.07;100.00;101310.81;5022093;28;20085;-78
2023/08/11 00:32:21;;;;;;;9.40;2.50;;;16.10;99.90;;;18.06;100.00;101319.38;5024403;28;20033;-79
2023/08/11 00:34:49;;;;;;;6.57;2.47;;;16.10;99.90;;;18.19;100.00;101298.88;5013876;28;20089;-78
2023/08/11 00:37:15;;;;;;;5.82;2.30;;;16.20;99.90;;;18.20;100.00;101320.69;5034489;28;20128;-80
2023/08/11 00:39:40;;;;;;;5.57;2.10;;;16.20;99.90;;;18.23;100.00;101311.91;5021194;28;20336;-80
2023/08/11 00:42:06;;;;;;;5.10;2.30;;;16.20;99.90;;;18.25;100.00;101315.25;5026533;28;20433;-79
2023/08/11 00:44:33;;;;;;;4.30;2.20;;;16.20;99.90;;;18.07;100.00;101313.56;4996601;28;20037;-79
2023/08/11 00:47:00;;;;;;;6.72;2.17;;;16.20;99.90;;;18.29;100.00;101325.78;5020836;28;20072;-79
2023/08/11 00:49:26;;;;;;;7.05;2.50;;;16.20;99.90;;;18.31;100.00;101321.69;5022135;28;20499;-79
2023/08/11 00:51:52;;;;;;;7.28;2.15;;;16.20;99.90;;;18.38;100.00;101329.81;5019171;28;20490;-80
2023/08/11 00:54:19;;;;;;;6.25;2.35;;;16.30;99.90;;;18.32;100.00;101333.59;5025508;28;20026;-79
2023/08/11 00:56:48;;;;;;;5.50;2.40;;;16.30;99.90;;;18.31;100.00;101326.38;5040768;28;20684;-79
2023/08/11 00:59:19;;;;;;;7.57;2.22;;;16.30;99.90;;;18.41;100.00;101332.06;5040762;28;20041;-79
2023/08/11 01:01:45;;;;;;;6.45;2.15;;;16.30;99.90;;;18.49;100.00;101331.63;5026077;28;20504;-79
2023/08/11 01:04:12;;;;;;;8.68;2.40;;;16.30;99.90;;;18.52;100.00;101325.56;5029061;28;20067;-79
2023/08/11 01:07:13;;;;;;;4.53;2.10;;;16.30;99.90;;;18.51;100.00;101323.09;5014846;28;20036;-79
2023/08/11 01:10:00;;;;;;;8.25;2.30;;;16.40;99.90;;;18.36;100.00;101327.28;5005624;28;20033;-79
2023/08/11 01:12:40;;;;;;;6.00;2.40;;;16.40;99.90;;;18.51;100.00;101320.31;5005004;28;20057;-79
2023/08/11 01:15:24;;;;;;;6.30;2.40;;;16.40;99.90;;;18.64;100.00;101324.66;5015190;28;20037;-78
2023/08/11 01:17:53;;;;;;;6.43;2.70;;;16.40;99.90;;;18.67;100.00;101316.66;5015733;28;20062;-78
2023/08/11 01:20:20;;;;;;;5.78;2.45;;;16.40;99.90;;;18.67;100.00;101307.56;5022157;28;20038;-79
2023/08/11 01:22:51;;;;;;;7.43;2.42;;;16.40;99.90;;;18.53;100.00;101313.44;5012900;28;20073;-79
2023/08/11 01:25:19;;;;;;;4.90;2.13;;;16.40;99.90;;;18.43;100.00;101316.06;5012775;28;20121;-78
2023/08/11 01:27:59;;;;;;;5.70;2.30;;;16.40;99.90;;;18.46;100.00;101318.31;5000294;28;20413;-79
2023/08/11 01:30:27;;;;;;;5.32;2.10;;;16.40;99.90;;;18.37;100.00;101311.56;4998640;28;20042;-79
2023/08/11 01:32:56;;;;;;;6.22;2.03;;;16.40;99.90;;;18.46;100.00;101307.25;5000813;28;20041;-79
2023/08/11 01:35:23;;;;;;;7.75;2.88;;;16.40;99.90;;;18.39;100.00;101301.09;5002820;28;20066;-79
2023/08/11 01:37:49;;;;;;;4.82;2.28;;;16.30;99.90;;;18.26;100.00;101305.03;5006999;28;20084;-78
2023/08/11 01:40:16;;;;;;;5.25;2.17;;;16.30;99.90;;;18.19;100.00;101296.94;5004877;28;20032;-79
2023/08/11 01:42:44;;;;;;;4.57;2.00;;;16.30;99.90;;;18.25;100.00;101300.59;5010456;28;20061;-79
2023/08/11 01:45:13;;;;;;;5.30;1.95;;;16.40;99.90;;;18.26;100.00;101294.81;5002005;28;20435;-79
2023/08/11 01:47:46;;;;;;;7.05;2.50;;;16.30;99.90;;;18.20;100.00;101298.59;5000591;28;20466;-79
2023/08/11 01:50:13;;;;;;;6.70;2.55;;;16.30;99.90;;;18.07;100.00;101296.19;5009732;28;20053;-78
2023/08/11 01:52:46;;;;;;;8.60;2.90;;;16.30;99.90;;;18.03;100.00;101287.56;5002722;28;20067;-78
2023/08/11 01:55:14;;;;;;;7.45;2.40;;;16.30;99.90;;;18.22;100.00;101290.06;5009399;28;20111;-78
2023/08/11 01:57:41;;;;;;;;;;;16.30;99.90;;;18.25;100.00;101295.91;5005000;28;20145;-78
2023/08/11 02:00:12;;;;;;;7.43;2.50;;;16.30;99.90;;;18.23;100.00;101297.25;5017613;28;20417;-79
2023/08/11 02:02:40;;;;;;;7.03;2.65;;;16.30;99.90;;;18.10;100.00;101290.97;5005735;28;20405;-78
2023/08/11 02:05:07;;;;;;;8.48;2.63;;;16.30;99.90;;;18.16;100.00;101291.91;5010502;28;20034;-78
2023/08/11 02:07:35;;;;;;;7.27;2.87;;;16.30;99.90;;;18.10;100.00;101292.94;5021312;28;20116;-78
2023/08/11 02:10:02;;;;;;;9.15;2.80;;;16.40;99.90;;;18.17;100.00;101301.88;5022923;28;20295;-78
2023/08/11 02:12:28;;;;;;;9.27;2.38;;;16.40;99.90;;;18.23;100.00;101298.09;5031442;28;20397;-78
2023/08/11 02:14:54;;;;;;;7.90;2.40;;;16.40;99.90;;;18.26;100.00;101296.75;5044536;28;20038;-79
2023/08/11 02:17:20;;;;;;;8.32;2.40;;;16.50;99.90;;;18.15;100.00;101295.75;5039950;28;20092;-79
2023/08/11 02:19:46;;;;;;;8.27;2.50;;;16.50;99.90;;;18.12;100.00;101293.50;5019658;28;20414;-79
2023/08/11 02:22:12;;;;;;;7.95;2.25;;;16.50;99.90;;;18.16;100.00;101291.91;5024997;28;20041;-79
2023/08/11 02:24:38;;;;;;;7.00;2.42;;;16.50;99.90;;;18.05;100.00;101285.38;5014431;28;20048;-78
2023/08/11 02:27:04;;;;;;;5.07;2.60;;;16.50;99.90;;;18.03;100.00;101289.47;5017432;28;20128;-79
2023/08/11 02:29:30;;;;;;;6.18;2.40;;;16.50;99.90;;;18.09;100.00;101283.78;5020669;28;20113;-78
2023/08/11 02:31:55;;;;;;;6.88;2.22;;;16.50;99.90;;;18.15;100.00;101284.72;5023373;28;20497;-79
2023/08/11 02:34:21;;;;;;;7.70;2.30;;;16.50;99.90;;;18.08;100.00;101279.38;5023279;28;20041;-78
2023/08/11 02:36:47;;;;;;;6.75;2.53;;;16.40;99.90;;;18.04;100.00;101271.84;5027830;28;20045;-79
2023/08/11 02:39:13;;;;;;;8.98;2.63;;;16.40;99.90;;;18.04;100.00;101275.44;5029623;28;20037;-79
2023/08/11 02:41:39;;;;;;;7.32;2.20;;;16.40;99.90;;;18.07;100.00;101276.88;5025680;28;20041;-78
2023/08/11 02:44:05;;;;;;;6.63;2.45;;;16.40;99.90;;;18.10;100.00;101270.84;5030780;28;20025;-78
2023/08/11 02:46:31;;;;;;;9.18;2.53;;;16.50;99.90;;;18.24;100.00;101280.44;5030976;28;20037;-79
2023/08/11 02:48:58;;;;;;;13.43;3.10;;;16.50;99.90;;;18.28;100.00;101268.88;5041950;28;20040;-78
2023/08/11 02:51:23;;;;;;;10.50;2.50;;;16.50;99.90;;;18.36;100.00;101280.31;5044860;28;20030;-78
2023/08/11 02:53:49;;;;;;;6.45;2.20;;;16.50;99.90;;;18.37;100.00;101276.47;5043475;28;20045;-78
2023/08/11 02:56:15;;;;;;;5.82;2.67;;;16.60;99.90;;;18.34;100.00;101276.16;5030235;28;20099;-79
2023/08/11 02:58:44;;;;;;;6.47;2.20;;;16.60;99.90;;;18.35;100.00;101272.31;5030174;28;20041;-79
2023/08/11 03:01:10;;;;;;;7.15;2.33;;;16.60;99.90;;;18.45;100.00;101272.44;5027151;28;20496;-79
2023/08/11 03:03:36;;;;;;;7.28;2.30;;;16.60;99.90;;;18.31;100.00;101274.72;5016944;28;20532;-78
2023/08/11 03:06:04;;;;;;;6.35;2.45;;;16.60;99.90;;;18.23;100.00;101272.41;4997383;28;20107;-79
2023/08/11 03:08:31;;;;;;;7.30;2.38;;;16.60;99.90;;;18.22;100.00;101263.28;5027906;28;20112;-78
2023/08/11 03:11:00;;;;;;;5.90;2.20;;;16.60;99.90;;;18.19;100.00;101262.97;5025805;28;20061;-79
2023/08/11 03:13:32;;;;;;;8.52;2.53;;;16.60;99.90;;;18.22;100.00;101267.97;5018637;28;20068;-79
2023/08/11 03:15:59;;;;;;;8.20;2.25;;;16.60;99.90;;;18.22;100.00;101266.03;4996945;28;20029;-78
2023/08/11 03:18:25;;;;;;;7.43;2.70;;;16.50;99.90;;;18.05;100.00;101265.25;5024178;28;20038;-78
2023/08/11 03:20:52;;;;;;;4.85;2.28;;;16.50;99.90;;;18.25;100.00;101268.28;5022348;28;20120;-78
2023/08/11 03:23:19;;;;;;;7.13;2.78;;;16.50;99.90;;;18.12;100.00;101260.38;5027856;28;20026;-78
2023/08/11 03:25:45;;;;;;;8.13;2.58;;;16.50;99.90;;;18.22;100.00;101268.81;5043629;28;20037;-78
2023/08/11 03:28:12;;;;;;;10.40;2.30;;;16.50;99.90;;;18.31;100.00;101276.69;5019466;28;20087;-78
2023/08/11 03:30:40;;;;;;;6.20;2.20;;;16.60;99.90;;;18.19;100.00;101271.25;5026191;28;20072;-78
2023/08/11 03:33:06;;;;;;;6.82;2.22;;;16.50;99.90;;;18.16;100.00;101269.81;5041093;28;20508;-78
2023/08/11 03:35:40;;;;;;;8.23;2.20;;;16.60;99.90;;;18.15;100.00;101265.38;5032147;28;20030;-79
2023/08/11 03:38:06;;;;;;;9.30;2.20;;;16.50;99.90;;;18.14;100.00;101266.47;5019106;28;20033;-78
2023/08/11 03:40:33;;;;;;;9.17;2.67;;;16.50;99.90;;;18.21;100.00;101269.06;5029648;28;20033;-78
2023/08/11 03:42:59;;;;;;;9.02;3.05;;;16.50;99.90;;;18.30;100.00;101280.50;5028864;28;20681;-78
2023/08/11 03:45:25;;;;;;;6.95;2.08;;;16.50;99.90;;;18.32;100.00;101270.88;5015133;28;20037;-78
2023/08/11 03:47:51;;;;;;;6.45;2.50;;;16.50;99.90;;;18.39;100.00;101273.47;5027378;28;20045;-79
2023/08/11 03:50:20;;;;;;;6.55;2.20;;;16.50;99.90;;;18.29;100.00;101287.97;5046132;28;20033;-78
2023/08/11 03:52:47;;;;;;;6.50;2.10;;;16.50;99.90;;;18.30;100.00;101269.44;5033751;28;20043;-79
2023/08/11 03:55:14;;;;;;;6.07;2.40;;;16.50;99.90;;;18.27;100.00;101279.09;5028315;28;20030;-79
2023/08/11 03:57:40;;;;;;;5.53;2.50;;;16.50;99.90;;;18.24;100.00;101277.66;5016230;28;20056;-78
2023/08/11 04:00:14;;;;;;;9.07;2.33;;;16.50;99.90;;;18.19;100.00;101272.06;5028702;28;20033;-78
2023/08/11 04:02:43;;;;;;;6.88;2.15;;;16.50;99.90;;;18.28;100.00;101277.16;5027348;28;20045;-79
2023/08/11 04:05:11;;;;;;;6.13;2.10;;;16.50;99.90;;;18.29;100.00;101284.34;5022659;28;20481;-79
2023/08/11 04:07:38;;;;;;;5.03;1.92;;;16.50;99.90;;;18.16;100.00;101286.38;5027007;28;20086;-78
2023/08/11 04:10:05;;;;;;;10.48;2.40;;;16.50;99.90;;;18.21;100.00;101274.59;5018441;28;20683;-79
2023/08/11 04:12:33;;;;;;;10.48;2.38;;;16.60;99.90;;;18.30;100.00;101283.25;5028452;28;20065;-79
2023/08/11 04:14:59;;;;;;;8.02;2.08;;;16.60;99.90;;;18.33;100.00;101286.38;5041427;28;20087;-79
2023/08/11 04:17:26;;;;;;;7.55;2.30;;;16.60;99.90;;;18.35;100.00;101286.13;5029010;28;20052;-79
2023/08/11 04:19:53;;;;;;;6.57;2.20;;;16.60;99.90;;;18.35;100.00;101283.34;5027756;28;20103;-79
2023/08/11 04:22:20;;;;;;;6.80;2.20;;;16.60;99.90;;;18.32;100.00;101283.88;5025403;28;20030;-79
2023/08/11 04:24:46;;;;;;;7.75;2.20;;;16.60;99.90;;;18.53;100.00;101293.28;5027545;28;20385;-79
2023/08/11 04:27:12;;;;;;;5.75;1.95;;;16.50;99.90;;;18.53;100.00;101294.09;5038638;28;20033;-79
2023/08/11 04:29:38;;;;;;;7.43;2.33;;;16.50;99.90;;;18.20;100.00;101298.59;5026641;28;20065;-78
2023/08/11 04:32:04;;;;;;;5.68;2.30;;;16.50;99.90;;;18.11;100.00;101284.38;5012237;28;20061;-79
2023/08/11 04:34:33;;;;;;;7.10;2.60;;;16.40;99.90;;;17.94;100.00;101289.88;5029517;28;20036;-79
2023/08/11 04:37:00;;;;;;;8.10;2.50;;;16.40;99.90;;;17.74;100.00;101278.50;5018095;28;20037;-79
2023/08/11 04:39:27;;;;;;;;;;;16.30;99.90;;;17.83;100.00;101280.59;5039835;28;20045;-79
2023/08/11 04:41:53;;;;;;;4.72;2.08;;;16.20;99.90;;;18.08;100.00;101284.06;5029058;28;19917;-79
2023/08/11 04:44:19;;;;;;;5.53;2.22;;;16.20;99.90;;;18.05;100.00;101285.38;5022988;28;20029;-81
2023/08/11 04:46:45;;;;;;;6.95;2.50;;;16.10;99.90;;;17.94;100.00;101284.34;5025959;28;20477;-83
2023/08/11 04:49:11;;;;;;;7.35;2.30;;;16.00;99.90;;;17.92;100.00;101282.94;5018558;28;20022;-78
2023/08/11 04:51:37;;;;;;;5.72;2.50;;;16.00;99.90;;;17.85;100.00;101280.34;5029212;28;20036;-78
2023/08/11 04:54:03;;;;;;;7.15;2.90;;;15.90;99.90;;;17.80;100.00;101288.56;5017212;28;20034;-73
2023/08/11 04:56:29;;;;;;;8.05;2.60;;;15.90;99.90;;;17.45;100.00;101286.81;5025867;28;20107;-78
2023/08/11 04:58:55;;;;;;;6.78;2.70;;;15.80;99.90;;;17.74;100.00;101278.50;5027078;28;20529;-79
2023/08/11 05:01:22;;;;;;;5.70;2.80;;;15.80;99.90;;;17.69;100.00;101282.00;5024425;28;20037;-79
2023/08/11 05:03:50;;;;;;;6.60;2.60;;;15.80;99.90;;;17.71;100.00;101284.50;5017841;28;20029;-79
2023/08/11 05:06:16;;;;;;;5.88;2.63;;;15.80;99.90;;;17.56;100.00;101287.84;5028491;28;20038;-79
2023/08/11 05:08:45;;;;;;;9.38;3.10;;;15.70;99.90;;;17.54;100.00;101285.34;5028754;28;20045;-80
2023/08/11 05:11:10;;;;;;;13.68;3.67;;;15.70;99.90;;;17.62;100.00;101284.94;5024219;28;20034;-79
2023/08/11 05:13:36;;;;;;;6.78;2.80;;;15.70;99.90;;;17.79;100.00;101281.34;5024231;28;20072;-83
2023/08/11 05:16:03;;;;;;;8.75;3.15;;;15.80;99.90;;;17.90;100.00;101291.47;5027976;28;20080;-80
2023/08/11 05:18:28;;;;;;;7.72;2.75;;;15.90;99.90;;;17.97;100.00;101288.56;5033215;28;20041;-82
2023/08/11 05:20:54;;;;;;;6.28;2.47;;;16.00;99.90;;;18.00;100.00;101290.81;5028339;28;20552;-79
2023/08/11 05:23:20;;;;;;;5.03;2.60;;;16.00;99.90;;;18.14;100.00;101296.00;5019132;28;20844;-78
2023/08/11 05:25:46;;;;;;;6.65;2.78;;;16.10;99.90;;;18.13;100.00;101297.94;5015108;28;20064;-78
2023/08/11 05:28:11;;;;;;;9.48;2.72;;;16.20;99.90;;;18.10;100.00;101295.69;5027296;28;20045;-77
2023/08/11 05:30:37;;;;;;;9.45;3.13;;;16.30;99.90;;;18.25;100.00;101301.44;5027634;28;20041;-78
2023/08/11 05:33:04;;;;;;;7.57;2.80;;;16.30;99.90;;;18.36;100.00;101296.09;5024266;28;20046;-80
2023/08/11 05:35:29;;;;;;;8.20;3.08;;;16.40;99.90;;;18.47;100.00;101308.94;5036005;28;20521;-79
2023/08/11 05:37:56;;;;;;;7.97;3.00;;;16.50;99.90;;;18.63;100.00;101301.69;5035856;28;20121;-81
2023/08/11 05:40:21;;;;;;;9.35;2.72;;;16.60;99.90;;;18.79;100.00;101302.72;5025950;28;20052;-80
2023/08/11 05:42:47;;;;;;;6.20;2.72;;;16.70;99.90;;;18.79;100.00;101302.72;5025550;28;20117;-78
2023/08/11 05:45:13;;;;;;;11.48;2.92;;;16.80;99.90;;;18.91;100.00;101310.91;5039843;28;20437;-80
2023/08/11 05:47:40;;;;;;;9.18;2.90;;;16.90;99.90;;;19.03;100.00;101313.56;5029327;28;20378;-78
2023/08/11 05:50:06;;;;;;;7.50;2.50;;;17.00;99.90;;;19.25;100.00;101304.44;5034196;28;20025;-80
2023/08/11 05:52:32;;;;;;;7.68;2.55;;;17.10;99.90;;;19.20;100.00;101296.91;5033951;28;20033;-80
2023/08/11 05:54:58;;;;;;;5.40;2.03;;;17.20;99.90;;;19.34;100.00;101294.56;5034254;28;20033;-80
2023/08/11 05:57:23;;;;;;;7.30;2.35;;;17.30;99.90;;;19.34;100.00;101299.28;5028285;28;20507;-80
2023/08/11 05:59:49;;;;;;;8.73;2.78;;;17.40;99.90;;;19.13;100.00;101300.97;5041589;28;20402;-85
2023/08/11 06:02:15;;;;;;;6.90;2.63;;;17.50;99.90;;;19.18;100.00;101306.56;5026306;28;20037;-79
2023/08/11 06:04:41;;;;;;;5.25;1.98;;;17.60;99.90;;;19.23;100.00;101310.22;5030792;28;20498;-80
2023/08/11 06:07:08;;;;;;;6.20;2.25;;;17.70;99.90;;;19.69;100.00;101323.69;5024589;28;20037;-82
2023/08/11 06:09:34;;;;;;;6.80;2.63;;;17.80;99.90;;;19.72;100.00;101311.25;5041455;28;20107;-81
2023/08/11 06:12:00;;;;;;;5.03;2.30;;;18.00;99.90;;;19.86;100.00;101316.38;5029854;28;20485;-84
2023/08/11 06:14:25;;;;;;;6.57;2.50;;;18.10;99.90;;;19.83;100.00;101318.56;5023822;28;20037;-83
2023/08/11 06:16:51;;;;;;;6.18;2.65;;;18.10;99.90;;;20.04;100.00;101317.94;5025747;28;20502;-82
2023/08/11 06:19:17;;;;;;;5.82;2.22;;;18.20;99.90;;;19.89;100.00;101302.84;5031631;28;20116;-83
2023/08/11 06:21:45;;;;;;;6.93;2.40;;;18.30;99.90;;;20.09;100.00;101306.88;5028933;28;20033;-81
2023/08/11 06:24:11;;;;;;;6.95;2.50;;;18.40;99.90;;;20.24;100.00;101314.47;5029284;28;20774;-81
2023/08/11 06:26:37;;;;;;;7.90;2.10;;;18.50;99.90;;;20.12;100.00;101312.75;5029623;28;20037;-81
2023/08/11 06:29:04;;;;;;;7.72;2.30;;;18.50;99.90;;;20.37;100.00;101315.94;5022963;28;20029;-81
2023/08/11 06:31:31;;;;;;;5.70;2.33;;;18.60;99.90;;;20.66;100.00;101307.25;5024808;28;20139;-81
2023/08/11 06:33:57;;;;;;;3.70;1.77;;;18.70;99.90;;;20.62;100.00;101312.50;5022600;28;20044;-80
2023/08/11 06:36:22;;;;;;;8.10;2.30;;;18.90;99.90;;;20.54;100.00;101316.63;5029861;28;20037;-81
2023/08/11 06:38:48;;;;;;;7.07;2.45;;;19.00;99.90;;;20.68;100.00;101316.97;5029626;28;20366;-80
2023/08/11 06:41:14;;;;;;;7.47;2.22;;;19.00;99.90;;;20.63;100.00;101291.16;5025437;28;20037;-80
2023/08/11 06:43:41;;;;;;;7.25;2.50;;;;;;;20.81;100.00;101309.28;5012695;28;20034;-79
2023/08/11 06:46:07;;;;;;;8.23;2.60;;;19.20;99.90;;;21.08;100.00;101314.69;5020934;28;20635;-81
2023/08/11 06:48:33;;;;;;;4.30;1.92;;;;;;;21.19;100.00;101325.81;5016621;28;20112;-83
2023/08/11 06:50:59;;;;;;;5.68;2.15;;;;;;;21.07;100.00;101314.94;5023212;28;20037;-81
2023/08/11 06:53:25;;;;;;;4.18;2.00;;;;;;;21.13;100.00;101316.66;5014961;28;20030;-82
2023/08/11 06:55:54;;;;;;;4.78;2.35;;;;;;;21.30;100.00;101316.44;5017914;28;20169;-82
2023/08/11 06:58:20;;;;;;;5.50;2.28;;;;;;;21.47;100.00;101327.28;5025631;28;20463;-81
2023/08/11 07:00:47;;;;;;;5.38;2.25;;;;;;;21.45;100.00;101328.66;5026649;28;20034;-80
2023/08/11 07:03:13;;;;;;;7.68;2.55;;;;;;;21.38;100.00;101320.63;5022192;28;20076;-82
2023/08/11 07:05:39;;;;;;;4.03;1.90;;;;;;;21.50;100.00;101320.38;5023406;28;20130;-82
2023/08/11 07:08:05;;;;;;;4.90;2.10;;;;;;;21.56;100.00;101327.59;4989966;28;1035981;-84
2023/08/11 07:10:32;;;;;;;8.23;2.90;;;;;;;21.56;100.00;101324.81;5022840;28;20063;-83
2023/08/11 07:12:58;;;;;;;4.35;1.88;;;;;;;21.69;100.00;101329.84;5014919;28;20065;-82
2023/08/11 07:15:24;;;;;;;6.93;2.20;;;;;;;22.02;100.00;101326.81;5023439;28;20084;-84
2023/08/11 07:17:50;;;;;;;5.25;2.10;;;;;;;21.99;100.00;101330.16;5021670;28;20033;-80
2023/08/11 07:20:19;;;;;;;4.60;2.00;;;;;;;22.16;100.00;101334.59;5024067;28;20436;-81
2023/08/11 07:22:45;;;;;;;4.60;2.20;;;;;;;22.34;100.00;101338.75;5026036;28;20056;-80
2023/08/11 07:25:12;;;;;;;4.88;2.17;;;;;;;22.23;100.00;101333.19;5026274;28;20065;-82
2023/08/11 07:27:38;;;;;;;5.13;2.17;;;;;;;22.13;100.00;101338.75;5019969;28;20041;-80
2023/08/11 07:30:05;;;;;;;5.75;1.90;;;;;;;22.22;100.00;101342.63;5020712;28;20445;-81
2023/08/11 07:32:31;;;;;;;4.13;1.67;;;;;;;22.59;100.00;101328.72;5022407;28;20037;-81
2023/08/11 07:34:57;;;;;;;4.43;1.90;;;;;;;22.54;100.00;101337.91;5026523;28;20509;-81
2023/08/11 07:37:23;;;;;;;4.38;2.28;;;;;;;22.90;100.00;101328.63;5016103;28;20045;-81
2023/08/11 07:39:50;;;;;;;4.45;1.83;;;;;;;23.01;100.00;101327.47;5025916;28;20452;-80
2023/08/11 07:42:16;;;;;;;5.25;1.80;;;;;;;22.85;100.00;101337.81;5023583;28;20034;-80
2023/08/11 07:44:43;;;;;;;4.43;2.10;;;;;;;22.54;100.00;101330.41;5027309;28;20036;-80
2023/08/11 07:47:09;;;;;;;6.28;2.00;;;;;;;22.61;100.00;101329.28;5016731;28;20124;-81
2023/08/11 07:49:35;;;;;;;3.70;1.70;;;;;;;22.80;100.00;101323.94;5023753;28;20042;-78
2023/08/11 07:52:01;;;;;;;3.63;1.70;;;;;;;22.78;100.00;101331.72;5024849;28;20036;-80
2023/08/11 07:54:28;;;;;;;3.67;1.75;;;;;;;22.96;100.00;101330.25;5017791;28;20117;-80
2023/08/11 07:56:54;;;;;;;3.83;1.70;;;;;;;23.10;100.00;101336.91;5026725;28;20540;-82
2023/08/11 07:59:20;;;;;;;5.15;1.90;;;;;;;23.04;100.00;101334.41;5025513;28;20036;-81
2023/08/11 08:01:46;;;;;;;5.93;2.25;;;;;;;23.20;100.00;101340.75;5016018;28;20793;-82
2023/08/11 08:04:13;;;;;;;2.42;1.50;;;;;;;23.54;100.00;101340.00;5029549;28;20481;-80
2023/08/11 08:06:45;;;;;;;3.13;1.48;;;;;;;23.69;100.00;101339.06;5029938;28;20045;-81
2023/08/11 08:09:13;;;;;;;3.10;1.63;;;;;;;23.62;100.00;101333.84;5030189;28;20095;-80
2023/08/11 08:11:43;;;;;;;3.38;1.67;;;;;;;23.92;100.00;101331.97;5020346;28;20415;-81
2023/08/11 08:14:11;;;;;;;7.03;1.73;;;;;;;23.82;100.00;101332.03;5014588;28;20417;-79
2023/08/11 08:16:46;;;;;;;3.30;1.50;;;;;;;23.86;100.00;101330.31;5024108;28;20407;-78
2023/08/11 08:19:14;;;;;;;2.50;1.17;;;;;;;23.98;100.00;101341.94;5027322;28;20037;-81
2023/08/11 08:21:43;;;;;;;3.33;1.30;;;;;;;24.05;100.00;101343.56;5022844;28;20505;-79
2023/08/11 08:24:10;;;;;;;3.80;1.30;;;;;;;24.10;100.00;101337.94;5021654;28;20385;-82
2023/08/11 08:26:37;;;;;;;2.40;0.90;;;;;;;23.97;98.08;101333.84;5029325;28;20069;-80
2023/08/11 08:29:04;;;;;;;2.80;1.40;;;;;;;24.10;99.85;101343.53;5026433;28;20048;-79
2023/08/11 08:31:30;;;;;;;2.55;1.13;;;;;;;24.36;97.58;101340.50;5028043;28;20089;-80
2023/08/11 08:33:56;;;;;;;1.95;1.00;;;;;;;24.45;97.38;101344.31;5019225;28;20042;-79
2023/08/11 08:36:22;;;;;;;2.58;1.30;;;;;;;24.73;95.10;101332.59;5028859;28;20539;-79
2023/08/11 08:38:49;;;;;;;2.50;1.20;;;;;;;24.69;97.76;101333.19;5028692;28;20477;-79
2023/08/11 08:41:20;;;;;;;2.58;1.00;;;;;;;24.78;98.96;101330.59;5029346;28;20033;-81
2023/08/11 08:43:47;;;;;;;2.50;0.82;;;;;;;24.69;91.15;101329.56;5028756;28;20033;-81
2023/08/11 08:46:16;;;;;;;4.90;1.08;;;;;;;24.95;87.12;101330.13;5027338;28;20033;-80
2023/08/11 08:49:13;;;;;;;2.35;1.10;;;;;;;24.76;86.45;101337.59;5027370;28;20045;-80
2023/08/11 08:51:40;;;;;;;2.38;0.90;;;;;;;25.01;86.84;101333.69;5019264;28;20129;-80
2023/08/11 08:54:10;;;;;;;4.68;2.08;;;;;;;25.06;85.85;101330.81;5027552;28;20041;-82
2023/08/11 08:56:37;;;;;;;2.05;1.10;;;;;;;24.97;92.60;101327.84;5043388;28;20099;-79
2023/08/11 08:59:04;;;;;;;;;;;;;;;25.60;89.52;101332.63;5029371;28;20127;-81
2023/08/11 09:01:31;;;;;;;2.17;1.00;;;;;;;25.67;88.33;101330.28;5028641;28;19979;-83
2023/08/11 09:03:57;;;;;;;3.13;0.90;;;;;;;26.14;92.44;101321.94;5026182;28;20037;-80
2023/08/11 09:06:25;;;;;;;1.90;1.00;;;;;;;25.48;88.74;101322.72;5028612;28;20041;-87
2023/08/11 09:08:51;;;;;;;2.42;0.90;;;;;;;25.11;80.11;101315.97;5005635;28;20818;-86
2023/08/11 09:11:18;;;;;;;1.38;0.90;;;;;;;25.53;85.53;101321.84;5024039;28;20057;-83
2023/08/11 09:13:44;;;;;;;2.22;1.00;;;;;;;25.38;81.20;101306.09;5025284;28;20044;-82
2023/08/11 09:16:12;;;;;;;3.63;1.00;;;;;;;25.12;86.60;101306.47;5034733;28;20038;-82
2023/08/11 09:18:38;;;;;;;2.65;1.20;;;;;;;25.32;86.59;101312.88;5035693;28;20041;-81
2023/08/11 09:21:05;;;;;;;2.17;0.80;;;;;;;25.62;81.87;101311.63;5030562;28;20505;-79
2023/08/11 09:23:33;;;;;;;1.60;0.85;;;;;;;26.00;75.99;101305.16;5032501;28;20141;-80
2023/08/11 09:25:59;;;;;;;;;;;;;;;26.10;78.07;101313.34;5030457;28;20025;-80
2023/08/11 09:28:26;;;;;;;3.08;1.10;;;;;;;26.16;83.03;101314.13;5023221;28;19921;-81
2023/08/11 09:30:52;;;;;;;2.80;1.00;;;;;;;25.83;77.38;101309.31;5028434;28;20472;-81
2023/08/11 09:33:21;;;;;;;2.10;0.98;;;;;;;25.88;94.70;101311.22;5028117;28;20294;-79
2023/08/11 09:35:48;;;;;;;3.45;0.80;;;;;;;26.02;85.88;101316.03;5027991;28;20032;-80
2023/08/11 09:38:15;;;;;;;5.30;1.40;;;;;;;25.72;78.15;101305.06;5028149;28;20025;-79
2023/08/11 09:40:41;;;;;;;2.83;1.10;;;;;;;25.57;77.51;101303.34;5013605;28;20040;-80
2023/08/11 09:43:10;;;;;;;3.42;0.90;;;;;;;25.85;78.06;101300.66;5022428;28;20030;-79
2023/08/11 09:45:37;;;;;;;3.47;1.20;;;;;;;26.01;80.11;101306.00;5026575;28;20033;-79
2023/08/11 09:48:03;;;;;;;3.53;1.20;;;;;;;26.11;73.71;101308.59;5026369;28;20042;-80
2023/08/11 09:50:34;;;;;;;3.03;1.02;;;;;;;26.43;71.20;101306.91;5017764;28;20045;-80
2023/08/11 09:53:04;;;;;;;3.40;1.00;;;;;;;26.65;71.28;101294.19;5024304;28;20045;-78
2023/08/11 09:55:35;;;;;;;1.70;0.98;;;;;;;26.90;69.71;101303.22;5027421;28;20493;-79
2023/08/11 09:58:03;;;;;;;3.25;0.90;;;;;;;26.61;76.27;101298.75;5023289;28;20037;-80
2023/08/11 10:00:31;;;;;;;2.78;1.00;;;;;;;26.93;75.56;101306.22;5029984;28;20044;-79
2023/08/11 10:03:05;;;;;;;;;;;;;;;27.53;66.58;101304.34;5032459;28;20042;-79
2023/08/11 10:05:33;;;;;;;1.55;0.90;;;;;;;27.11;67.76;101301.63;5026323;28;20007;-80
2023/08/11 10:08:03;;;;;;;5.35;1.10;;;;;;;26.96;65.53;101301.97;5008420;28;20471;-80
2023/08/11 10:10:34;;;;;;;2.40;0.85;;;;;;;26.78;69.42;101298.94;5024534;28;20478;-80
2023/08/11 10:13:03;;;;;;;3.78;1.13;;;;;;;26.76;61.36;101290.03;5025317;28;20509;-80
2023/08/11 10:15:31;;;;;;;2.78;1.08;;;;;;;27.52;70.74;101310.25;5008315;28;20083;-79
2023/08/11 10:17:57;;;;;;;;;;;;;;;28.46;58.91;101292.75;5025314;28;20523;-79
2023/08/11 10:20:23;;;;;;;2.63;0.80;;;;;;;29.14;60.80;101302.88;5031079;28;20419;-79
2023/08/11 10:22:50;;;;;;;4.68;0.90;;;;;;;29.64;50.89;101295.94;5032868;28;20071;-79
2023/08/11 10:25:17;;;;;;;2.45;0.90;;;;;;;29.67;50.08;101297.28;5021690;28;20025;-79
2023/08/11 10:27:44;;;;;;;1.30;0.73;;;;;;;30.90;45.67;101296.09;5031106;28;20079;-78
2023/08/11 10:30:14;;;;;;;2.20;0.98;;;;;;;31.63;40.27;101280.78;5030923;28;20081;-80
2023/08/11 10:32:40;;;;;;;2.50;0.95;;;;;;;32.04;37.78;101283.88;5030832;28;20059;-78